sensor_id;sensor_type;location;lat;lon;timestamp;temperature;humidity
18207;DHT22;9229;52.354;20.886;2022-07-01T00:00:38;22.50;85.50
18207;DHT22;9229;52.354;20.886;2022-07-01T00:05:41;22.50;86.10
18207;DHT22;9229;52.354;20.886;2022-07-01T00:10:43;22.40;86.60
18207;DHT22;9229;52.354;20.886;2022-07-01T00:15:47;22.40;87.30
18207;DHT22;9229;52.354;20.886;2022-07-01T00:20:50;22.40;88.20
18207;DHT22;9229;52.354;20.886;2022-07-01T00:25:52;22.20;89.70
18207;DHT22;9229;52.354;20.886;2022-07-01T00:30:54;22.30;90.70
18207;DHT22;9229;52.354;20.886;2022-07-01T00:35:58;22.10;91.40
18207;DHT22;9229;52.354;20.886;2022-07-01T00:41:00;21.90;91.90
18207;DHT22;9229;52.354;20.886;2022-07-01T00:46:02;21.80;92.80
18207;DHT22;9229;52.354;20.886;2022-07-01T00:51:06;21.70;93.60
18207;DHT22;9229;52.354;20.886;2022-07-01T00:56:08;21.70;94.90
18207;DHT22;9229;52.354;20.886;2022-07-01T01:01:10;21.70;96.80
18207;DHT22;9229;52.354;20.886;2022-07-01T01:06:14;21.40;98.40
18207;DHT22;9229;52.354;20.886;2022-07-01T01:11:17;21.40;99.20
18207;DHT22;9229;52.354;20.886;2022-07-01T01:16:19;21.50;99.90
18207;DHT22;9229;52.354;20.886;2022-07-01T01:21:23;21.60;99.90
18207;DHT22;9229;52.354;20.886;2022-07-01T01:26:25;21.60;99.90
18207;DHT22;9229;52.354;20.886;2022-07-01T01:31:28;21.60;99.90
18207;DHT22;9229;52.354;20.886;2022-07-01T01:36:32;21.60;99.90
18207;DHT22;9229;52.354;20.886;2022-07-01T01:41:34;21.60;99.90
18207;DHT22;9229;52.354;20.886;2022-07-01T01:46:36;21.50;99.90
18207;DHT22;9229;52.354;20.886;2022-07-01T01:51:40;21.50;99.90
18207;DHT22;9229;52.354;20.886;2022-07-01T01:56:42;21.50;99.90
18207;DHT22;9229;52.354;20.886;2022-07-01T02:01:44;21.40;99.90
18207;DHT22;9229;52.354;20.886;2022-07-01T02:06:47;21.30;99.90
18207;DHT22;9229;52.354;20.886;2022-07-01T02:11:49;21.20;99.90
18207;DHT22;9229;52.354;20.886;2022-07-01T02:16:51;21.20;99.90
18207;DHT22;9229;52.354;20.886;2022-07-01T02:21:54;21.10;99.90
18207;DHT22;9229;52.354;20.886;2022-07-01T02:26:56;21.00;99.90
18207;DHT22;9229;52.354;20.886;2022-07-01T02:31:58;20.90;99.90
18207;DHT22;9229;52.354;20.886;2022-07-01T02:37:01;20.80;99.90
18207;DHT22;9229;52.354;20.886;2022-07-01T02:42:03;20.80;99.90
18207;DHT22;9229;52.354;20.886;2022-07-01T02:47:23;20.80;99.90
18207;DHT22;9229;52.354;20.886;2022-07-01T02:52:27;20.80;99.90
18207;DHT22;9229;52.354;20.886;2022-07-01T02:57:29;20.90;99.90
18207;DHT22;9229;52.354;20.886;2022-07-01T03:02:31;21.00;99.90
18207;DHT22;9229;52.354;20.886;2022-07-01T03:07:35;21.10;99.90
18207;DHT22;9229;52.354;20.886;2022-07-01T03:12:37;21.20;99.90
18207;DHT22;9229;52.354;20.886;2022-07-01T03:17:41;21.30;99.90
18207;DHT22;9229;52.354;20.886;2022-07-01T03:22:45;21.40;99.90
18207;DHT22;9229;52.354;20.886;2022-07-01T03:27:48;21.60;99.90
18207;DHT22;9229;52.354;20.886;2022-07-01T03:32:50;21.70;99.90
18207;DHT22;9229;52.354;20.886;2022-07-01T03:37:54;21.90;99.90
18207;DHT22;9229;52.354;20.886;2022-07-01T03:42:56;21.90;99.90
18207;DHT22;9229;52.354;20.886;2022-07-01T03:47:58;22.10;99.90
18207;DHT22;9229;52.354;20.886;2022-07-01T03:53:02;22.30;99.90
18207;DHT22;9229;52.354;20.886;2022-07-01T03:58:21;22.50;99.90
18207;DHT22;9229;52.354;20.886;2022-07-01T04:03:23;22.70;99.90
18207;DHT22;9229;52.354;20.886;2022-07-01T04:08:27;22.90;99.90
18207;DHT22;9229;52.354;20.886;2022-07-01T04:13:29;23.10;99.90
18207;DHT22;9229;52.354;20.886;2022-07-01T04:18:31;23.30;99.90
18207;DHT22;9229;52.354;20.886;2022-07-01T04:23:35;23.50;99.90
18207;DHT22;9229;52.354;20.886;2022-07-01T04:28:37;23.70;99.90
18207;DHT22;9229;52.354;20.886;2022-07-01T04:33:39;24.00;99.90
18207;DHT22;9229;52.354;20.886;2022-07-01T04:38:42;24.30;99.90
18207;DHT22;9229;52.354;20.886;2022-07-01T04:43:44;24.50;99.90
18207;DHT22;9229;52.354;20.886;2022-07-01T04:48:46;24.90;99.90
18207;DHT22;9229;52.354;20.886;2022-07-01T04:53:50;25.40;99.90
18207;DHT22;9229;52.354;20.886;2022-07-01T04:58:52;25.80;99.90
18207;DHT22;9229;52.354;20.886;2022-07-01T05:03:54;26.00;99.90
18207;DHT22;9229;52.354;20.886;2022-07-01T05:08:57;26.00;99.90
18207;DHT22;9229;52.354;20.886;2022-07-01T05:13:59;26.30;99.90
18207;DHT22;9229;52.354;20.886;2022-07-01T05:19:02;27.00;99.90
18207;DHT22;9229;52.354;20.886;2022-07-01T05:24:31;27.60;99.90
18207;DHT22;9229;52.354;20.886;2022-07-01T05:29:33;28.10;99.90
18207;DHT22;9229;52.354;20.886;2022-07-01T05:34:35;28.60;99.90
18207;DHT22;9229;52.354;20.886;2022-07-01T05:39:40;28.90;99.90
18207;DHT22;9229;52.354;20.886;2022-07-01T05:44:42;29.20;99.90
18207;DHT22;9229;52.354;20.886;2022-07-01T05:49:44;29.70;99.90
18207;DHT22;9229;52.354;20.886;2022-07-01T05:54:47;30.00;99.90
18207;DHT22;9229;52.354;20.886;2022-07-01T05:59:49;30.90;99.00
18207;DHT22;9229;52.354;20.886;2022-07-01T06:04:51;31.50;96.00
18207;DHT22;9229;52.354;20.886;2022-07-01T06:09:54;32.10;94.10
18207;DHT22;9229;52.354;20.886;2022-07-01T06:14:56;32.50;92.60
18207;DHT22;9229;52.354;20.886;2022-07-01T06:19:59;33.20;91.50
18207;DHT22;9229;52.354;20.886;2022-07-01T06:25:03;33.30;88.60
18207;DHT22;9229;52.354;20.886;2022-07-01T06:30:08;34.00;86.00
18207;DHT22;9229;52.354;20.886;2022-07-01T06:35:10;34.40;82.50
18207;DHT22;9229;52.354;20.886;2022-07-01T06:40:14;35.10;78.60
18207;DHT22;9229;52.354;20.886;2022-07-01T06:45:16;35.70;76.90
18207;DHT22;9229;52.354;20.886;2022-07-01T06:50:18;36.20;74.10
18207;DHT22;9229;52.354;20.886;2022-07-01T06:55:24;36.60;72.20
18207;DHT22;9229;52.354;20.886;2022-07-01T07:00:26;37.30;68.70
18207;DHT22;9229;52.354;20.886;2022-07-01T07:05:28;37.90;64.60
18207;DHT22;9229;52.354;20.886;2022-07-01T07:10:33;38.00;64.00
18207;DHT22;9229;52.354;20.886;2022-07-01T07:15:35;37.90;61.90
18207;DHT22;9229;52.354;20.886;2022-07-01T07:20:40;37.60;61.60
18207;DHT22;9229;52.354;20.886;2022-07-01T07:25:44;37.80;61.40
18207;DHT22;9229;52.354;20.886;2022-07-01T07:30:46;38.00;59.30
18207;DHT22;9229;52.354;20.886;2022-07-01T07:35:48;38.70;59.30
18207;DHT22;9229;52.354;20.886;2022-07-01T07:40:52;39.50;56.90
18207;DHT22;9229;52.354;20.886;2022-07-01T07:45:54;39.40;56.30
18207;DHT22;9229;52.354;20.886;2022-07-01T07:50:56;40.10;56.20
18207;DHT22;9229;52.354;20.886;2022-07-01T07:56:00;40.60;54.30
18207;DHT22;9229;52.354;20.886;2022-07-01T08:01:02;40.50;53.20
18207;DHT22;9229;52.354;20.886;2022-07-01T08:06:04;41.00;53.00
18207;DHT22;9229;52.354;20.886;2022-07-01T08:11:08;41.50;52.70
18207;DHT22;9229;52.354;20.886;2022-07-01T08:16:10;42.00;50.30
18207;DHT22;9229;52.354;20.886;2022-07-01T08:21:12;42.60;50.00
18207;DHT22;9229;52.354;20.886;2022-07-01T08:26:16;43.50;48.60
18207;DHT22;9229;52.354;20.886;2022-07-01T08:31:18;44.20;46.70
18207;DHT22;9229;52.354;20.886;2022-07-01T08:36:20;44.10;47.10
18207;DHT22;9229;52.354;20.886;2022-07-01T08:41:24;44.90;44.70
18207;DHT22;9229;52.354;20.886;2022-07-01T08:46:26;44.70;44.60
18207;DHT22;9229;52.354;20.886;2022-07-01T08:51:28;44.60;43.90
18207;DHT22;9229;52.354;20.886;2022-07-01T08:56:32;44.60;44.70
18207;DHT22;9229;52.354;20.886;2022-07-01T09:01:45;44.40;44.00
18207;DHT22;9229;52.354;20.886;2022-07-01T09:06:48;44.50;42.60
18207;DHT22;9229;52.354;20.886;2022-07-01T09:11:53;44.20;42.40
18207;DHT22;9229;52.354;20.886;2022-07-01T09:16:57;44.40;42.40
18207;DHT22;9229;52.354;20.886;2022-07-01T09:22:00;44.20;42.00
18207;DHT22;9229;52.354;20.886;2022-07-01T09:27:06;44.80;40.60
18207;DHT22;9229;52.354;20.886;2022-07-01T09:32:13;44.30;41.10
18207;DHT22;9229;52.354;20.886;2022-07-01T09:37:19;44.30;40.00
18207;DHT22;9229;52.354;20.886;2022-07-01T09:42:24;44.10;40.60
18207;DHT22;9229;52.354;20.886;2022-07-01T09:47:26;43.30;39.80
18207;DHT22;9229;52.354;20.886;2022-07-01T09:52:29;43.20;39.10
18207;DHT22;9229;52.354;20.886;2022-07-01T09:57:32;43.00;39.70
18207;DHT22;9229;52.354;20.886;2022-07-01T10:02:36;42.50;40.70
18207;DHT22;9229;52.354;20.886;2022-07-01T10:07:45;42.60;39.90
18207;DHT22;9229;52.354;20.886;2022-07-01T10:12:53;42.10;41.00
18207;DHT22;9229;52.354;20.886;2022-07-01T10:17:56;42.30;39.60
18207;DHT22;9229;52.354;20.886;2022-07-01T10:23:03;42.00;40.60
18207;DHT22;9229;52.354;20.886;2022-07-01T10:28:18;42.40;40.10
18207;DHT22;9229;52.354;20.886;2022-07-01T10:33:31;43.50;39.20
18207;DHT22;9229;52.354;20.886;2022-07-01T10:38:34;44.20;38.20
18207;DHT22;9229;52.354;20.886;2022-07-01T10:43:37;45.40;37.40
18207;DHT22;9229;52.354;20.886;2022-07-01T10:48:48;46.10;36.30
18207;DHT22;9229;52.354;20.886;2022-07-01T10:53:50;45.70;37.70
18207;DHT22;9229;52.354;20.886;2022-07-01T10:59:00;44.80;37.80
18207;DHT22;9229;52.354;20.886;2022-07-01T11:04:03;44.70;39.20
18207;DHT22;9229;52.354;20.886;2022-07-01T11:09:05;45.60;37.10
18207;DHT22;9229;52.354;20.886;2022-07-01T11:14:08;45.80;36.90
18207;DHT22;9229;52.354;20.886;2022-07-01T11:19:10;45.00;36.80
18207;DHT22;9229;52.354;20.886;2022-07-01T11:24:12;44.80;37.80
18207;DHT22;9229;52.354;20.886;2022-07-01T11:29:25;44.10;37.70
18207;DHT22;9229;52.354;20.886;2022-07-01T11:34:28;44.80;36.50
18207;DHT22;9229;52.354;20.886;2022-07-01T11:39:30;44.00;36.20
18207;DHT22;9229;52.354;20.886;2022-07-01T11:44:36;43.70;36.40
18207;DHT22;9229;52.354;20.886;2022-07-01T11:49:46;43.60;36.40
18207;DHT22;9229;52.354;20.886;2022-07-01T11:54:51;43.70;38.00
18207;DHT22;9229;52.354;20.886;2022-07-01T12:00:09;45.00;35.00
18207;DHT22;9229;52.354;20.886;2022-07-01T12:05:12;44.50;34.90
18207;DHT22;9229;52.354;20.886;2022-07-01T12:10:14;43.80;35.70
18207;DHT22;9229;52.354;20.886;2022-07-01T12:15:22;43.80;37.00
18207;DHT22;9229;52.354;20.886;2022-07-01T12:20:31;44.10;36.40
18207;DHT22;9229;52.354;20.886;2022-07-01T12:25:33;44.60;35.00
18207;DHT22;9229;52.354;20.886;2022-07-01T12:30:36;43.80;35.50
18207;DHT22;9229;52.354;20.886;2022-07-01T12:35:40;42.80;36.50
18207;DHT22;9229;52.354;20.886;2022-07-01T12:40:43;42.50;36.90
18207;DHT22;9229;52.354;20.886;2022-07-01T12:45:46;42.90;36.20
18207;DHT22;9229;52.354;20.886;2022-07-01T12:50:52;43.00;37.20
18207;DHT22;9229;52.354;20.886;2022-07-01T12:55:57;44.40;35.80
18207;DHT22;9229;52.354;20.886;2022-07-01T13:01:03;44.40;34.70
18207;DHT22;9229;52.354;20.886;2022-07-01T13:06:05;43.70;36.10
18207;DHT22;9229;52.354;20.886;2022-07-01T13:11:07;43.80;36.50
18207;DHT22;9229;52.354;20.886;2022-07-01T13:16:10;43.80;36.20
18207;DHT22;9229;52.354;20.886;2022-07-01T13:21:12;43.40;36.20
18207;DHT22;9229;52.354;20.886;2022-07-01T13:26:13;43.70;36.20
18207;DHT22;9229;52.354;20.886;2022-07-01T13:31:17;44.20;35.50
18207;DHT22;9229;52.354;20.886;2022-07-01T13:36:18;44.30;35.30
18207;DHT22;9229;52.354;20.886;2022-07-01T13:41:20;44.30;35.30
18207;DHT22;9229;52.354;20.886;2022-07-01T13:46:25;43.60;36.40
18207;DHT22;9229;52.354;20.886;2022-07-01T13:51:28;43.50;36.20
18207;DHT22;9229;52.354;20.886;2022-07-01T13:56:30;43.50;36.00
18207;DHT22;9229;52.354;20.886;2022-07-01T14:01:34;42.90;36.50
18207;DHT22;9229;52.354;20.886;2022-07-01T14:06:38;42.90;36.70
18207;DHT22;9229;52.354;20.886;2022-07-01T14:11:40;42.10;36.70
18207;DHT22;9229;52.354;20.886;2022-07-01T14:16:43;41.60;38.10
18207;DHT22;9229;52.354;20.886;2022-07-01T14:21:45;40.40;39.30
18207;DHT22;9229;52.354;20.886;2022-07-01T14:26:47;39.40;41.40
18207;DHT22;9229;52.354;20.886;2022-07-01T14:31:50;38.60;41.10
18207;DHT22;9229;52.354;20.886;2022-07-01T14:36:52;38.00;41.70
18207;DHT22;9229;52.354;20.886;2022-07-01T14:41:55;37.50;41.90
18207;DHT22;9229;52.354;20.886;2022-07-01T14:46:59;37.20;43.10
18207;DHT22;9229;52.354;20.886;2022-07-01T14:52:01;37.10;44.00
18207;DHT22;9229;52.354;20.886;2022-07-01T14:57:03;36.70;44.00
18207;DHT22;9229;52.354;20.886;2022-07-01T15:02:07;36.60;44.20
18207;DHT22;9229;52.354;20.886;2022-07-01T15:07:09;36.30;44.40
18207;DHT22;9229;52.354;20.886;2022-07-01T15:12:12;36.20;45.00
18207;DHT22;9229;52.354;20.886;2022-07-01T15:17:15;36.00;44.90
18207;DHT22;9229;52.354;20.886;2022-07-01T15:22:17;35.90;45.10
18207;DHT22;9229;52.354;20.886;2022-07-01T15:27:19;35.90;45.10
18207;DHT22;9229;52.354;20.886;2022-07-01T15:32:22;35.90;44.60
18207;DHT22;9229;52.354;20.886;2022-07-01T15:37:24;35.80;45.00
18207;DHT22;9229;52.354;20.886;2022-07-01T15:42:27;35.70;45.50
18207;DHT22;9229;52.354;20.886;2022-07-01T15:47:30;35.60;45.50
18207;DHT22;9229;52.354;20.886;2022-07-01T15:52:50;35.50;45.80
18207;DHT22;9229;52.354;20.886;2022-07-01T15:57:51;35.50;46.10
18207;DHT22;9229;52.354;20.886;2022-07-01T16:02:56;35.30;45.00
18207;DHT22;9229;52.354;20.886;2022-07-01T16:07:59;35.30;44.80
18207;DHT22;9229;52.354;20.886;2022-07-01T16:13:02;35.20;45.00
18207;DHT22;9229;52.354;20.886;2022-07-01T16:18:10;35.10;44.80
18207;DHT22;9229;52.354;20.886;2022-07-01T16:23:13;34.90;45.00
18207;DHT22;9229;52.354;20.886;2022-07-01T16:28:16;34.90;44.70
18207;DHT22;9229;52.354;20.886;2022-07-01T16:33:21;34.90;45.10
18207;DHT22;9229;52.354;20.886;2022-07-01T16:38:27;34.80;45.00
18207;DHT22;9229;52.354;20.886;2022-07-01T16:43:35;34.70;45.80
18207;DHT22;9229;52.354;20.886;2022-07-01T16:48:40;34.60;45.30
18207;DHT22;9229;52.354;20.886;2022-07-01T16:53:45;34.50;46.70
18207;DHT22;9229;52.354;20.886;2022-07-01T16:58:55;34.40;46.80
18207;DHT22;9229;52.354;20.886;2022-07-01T17:04:01;34.40;47.80
18207;DHT22;9229;52.354;20.886;2022-07-01T17:09:03;34.20;48.50
18207;DHT22;9229;52.354;20.886;2022-07-01T17:14:09;34.00;48.70
18207;DHT22;9229;52.354;20.886;2022-07-01T17:19:12;33.90;49.50
18207;DHT22;9229;52.354;20.886;2022-07-01T17:24:17;33.70;49.90
18207;DHT22;9229;52.354;20.886;2022-07-01T17:29:24;33.60;50.10
18207;DHT22;9229;52.354;20.886;2022-07-01T17:34:29;33.30;50.50
18207;DHT22;9229;52.354;20.886;2022-07-01T17:39:35;33.00;50.70
18207;DHT22;9229;52.354;20.886;2022-07-01T17:44:38;32.80;50.50
18207;DHT22;9229;52.354;20.886;2022-07-01T17:49:44;32.50;50.80
18207;DHT22;9229;52.354;20.886;2022-07-01T17:54:47;32.50;51.50
18207;DHT22;9229;52.354;20.886;2022-07-01T17:59:51;32.10;52.20
18207;DHT22;9229;52.354;20.886;2022-07-01T18:04:57;32.00;52.20
18207;DHT22;9229;52.354;20.886;2022-07-01T18:09:59;31.80;52.70
18207;DHT22;9229;52.354;20.886;2022-07-01T18:15:03;31.70;53.40
18207;DHT22;9229;52.354;20.886;2022-07-01T18:20:13;31.50;53.80
18207;DHT22;9229;52.354;20.886;2022-07-01T18:25:21;31.40;54.30
18207;DHT22;9229;52.354;20.886;2022-07-01T18:30:25;31.30;54.80
18207;DHT22;9229;52.354;20.886;2022-07-01T18:35:31;31.20;55.10
18207;DHT22;9229;52.354;20.886;2022-07-01T18:40:34;31.10;55.80
18207;DHT22;9229;52.354;20.886;2022-07-01T18:45:37;30.90;56.10
18207;DHT22;9229;52.354;20.886;2022-07-01T18:50:42;30.80;56.80
18207;DHT22;9229;52.354;20.886;2022-07-01T18:55:44;30.70;57.30
18207;DHT22;9229;52.354;20.886;2022-07-01T19:00:46;30.50;58.00
18207;DHT22;9229;52.354;20.886;2022-07-01T19:05:49;30.40;59.00
18207;DHT22;9229;52.354;20.886;2022-07-01T19:10:51;30.20;59.70
18207;DHT22;9229;52.354;20.886;2022-07-01T19:15:53;30.10;60.30
18207;DHT22;9229;52.354;20.886;2022-07-01T19:20:57;29.90;61.70
18207;DHT22;9229;52.354;20.886;2022-07-01T19:25:59;29.60;63.10
18207;DHT22;9229;52.354;20.886;2022-07-01T19:31:01;29.40;64.20
18207;DHT22;9229;52.354;20.886;2022-07-01T19:36:05;29.10;65.20
18207;DHT22;9229;52.354;20.886;2022-07-01T19:41:08;28.90;65.70
18207;DHT22;9229;52.354;20.886;2022-07-01T19:46:09;28.90;64.20
18207;DHT22;9229;52.354;20.886;2022-07-01T19:51:13;28.90;65.00
18207;DHT22;9229;52.354;20.886;2022-07-01T19:56:15;28.70;66.30
18207;DHT22;9229;52.354;20.886;2022-07-01T20:01:17;28.40;68.00
18207;DHT22;9229;52.354;20.886;2022-07-01T20:06:21;28.20;69.60
18207;DHT22;9229;52.354;20.886;2022-07-01T20:11:24;27.80;70.80
18207;DHT22;9229;52.354;20.886;2022-07-01T20:16:26;27.50;72.20
18207;DHT22;9229;52.354;20.886;2022-07-01T20:21:29;27.30;73.30
18207;DHT22;9229;52.354;20.886;2022-07-01T20:26:32;27.20;74.60
18207;DHT22;9229;52.354;20.886;2022-07-01T20:31:34;27.10;75.70
18207;DHT22;9229;52.354;20.886;2022-07-01T20:36:37;26.90;76.70
18207;DHT22;9229;52.354;20.886;2022-07-01T20:41:40;26.70;77.70
18207;DHT22;9229;52.354;20.886;2022-07-01T20:46:44;26.70;78.80
18207;DHT22;9229;52.354;20.886;2022-07-01T20:51:47;26.60;79.40
18207;DHT22;9229;52.354;20.886;2022-07-01T20:56:51;26.40;80.00
18207;DHT22;9229;52.354;20.886;2022-07-01T21:01:54;26.40;80.60
18207;DHT22;9229;52.354;20.886;2022-07-01T21:06:58;26.30;81.20
18207;DHT22;9229;52.354;20.886;2022-07-01T21:12:04;26.20;81.60
18207;DHT22;9229;52.354;20.886;2022-07-01T21:17:08;26.20;82.40
18207;DHT22;9229;52.354;20.886;2022-07-01T21:22:12;26.10;82.90
18207;DHT22;9229;52.354;20.886;2022-07-01T21:27:17;26.00;84.00
18207;DHT22;9229;52.354;20.886;2022-07-01T21:32:22;25.90;84.50
18207;DHT22;9229;52.354;20.886;2022-07-01T21:37:28;25.80;85.40
18207;DHT22;9229;52.354;20.886;2022-07-01T21:42:35;25.80;85.70
18207;DHT22;9229;52.354;20.886;2022-07-01T21:47:42;25.80;86.30
18207;DHT22;9229;52.354;20.886;2022-07-01T21:52:48;25.70;88.00
18207;DHT22;9229;52.354;20.886;2022-07-01T21:57:53;25.60;87.60
18207;DHT22;9229;52.354;20.886;2022-07-01T22:02:56;25.30;88.20
18207;DHT22;9229;52.354;20.886;2022-07-01T22:07:59;24.70;94.80
18207;DHT22;9229;52.354;20.886;2022-07-01T22:13:02;23.70;99.90
18207;DHT22;9229;52.354;20.886;2022-07-01T22:18:05;22.60;99.90
18207;DHT22;9229;52.354;20.886;2022-07-01T22:23:10;21.80;99.90
18207;DHT22;9229;52.354;20.886;2022-07-01T22:28:14;21.40;99.90
18207;DHT22;9229;52.354;20.886;2022-07-01T22:33:19;21.10;99.90
18207;DHT22;9229;52.354;20.886;2022-07-01T22:38:23;21.00;99.90
18207;DHT22;9229;52.354;20.886;2022-07-01T22:43:26;21.00;99.90
18207;DHT22;9229;52.354;20.886;2022-07-01T22:48:35;20.80;99.90
18207;DHT22;9229;52.354;20.886;2022-07-01T22:53:42;20.70;99.90
18207;DHT22;9229;52.354;20.886;2022-07-01T22:58:48;20.80;99.90
18207;DHT22;9229;52.354;20.886;2022-07-01T23:03:50;20.90;99.90
18207;DHT22;9229;52.354;20.886;2022-07-01T23:08:55;20.90;99.90
18207;DHT22;9229;52.354;20.886;2022-07-01T23:13:58;20.70;99.90
18207;DHT22;9229;52.354;20.886;2022-07-01T23:19:21;20.60;99.90
18207;DHT22;9229;52.354;20.886;2022-07-01T23:24:26;20.60;99.90
18207;DHT22;9229;52.354;20.886;2022-07-01T23:29:29;20.70;99.90
18207;DHT22;9229;52.354;20.886;2022-07-01T23:34:34;20.80;99.90
18207;DHT22;9229;52.354;20.886;2022-07-01T23:39:39;20.90;99.90
18207;DHT22;9229;52.354;20.886;2022-07-01T23:44:42;20.90;99.90
18207;DHT22;9229;52.354;20.886;2022-07-01T23:49:44;20.90;99.90
18207;DHT22;9229;52.354;20.886;2022-07-01T23:54:47;20.90;99.90
18207;DHT22;9229;52.354;20.886;2022-07-01T23:59:49;20.90;99.90
